Time;durP1;ratioP1;P1;durP2;ratioP2;P2;SDS_P1;SDS_P2;PMS_P1;PMS_P2;Temp;Humidity;BMP_temperature;BMP_pressure;BME280_temperature;BME280_humidity;BME280_pressure;Samples;Min_cycle;Max_cycle;Signal;HPM_P1;HPM_P2
2022/01/18 00:01:28;;;;;;;22.93;5.40;;;0.00;99.90;;;;;;5028046;28;20549;-52
2022/01/18 00:03:55;;;;;;;16.33;5.50;;;0.00;99.90;;;;;;5026739;28;20538;-52
2022/01/18 00:06:22;;;;;;;16.57;5.23;;;0.00;99.90;;;;;;5035102;28;20500;-51
2022/01/18 00:08:49;;;;;;;23.30;6.90;;;-0.10;99.90;;;;;;5030153;28;20569;-51
2022/01/18 00:11:20;;;;;;;12.23;4.17;;;-0.10;99.90;;;;;;5030219;28;20463;-52
2022/01/18 00:13:49;;;;;;;17.50;4.70;;;-0.20;99.90;;;;;;5030315;28;20458;-52
2022/01/18 00:16:27;;;;;;;17.23;5.47;;;-0.10;99.90;;;;;;5033062;28;20496;-51
2022/01/18 00:18:55;;;;;;;16.87;5.70;;;-0.20;99.90;;;;;;5029515;28;20469;-52
2022/01/18 00:21:29;;;;;;;17.70;5.10;;;-0.20;99.90;;;;;;5030520;28;20529;-51
2022/01/18 00:23:58;;;;;;;19.17;5.67;;;-0.30;99.90;;;;;;5023816;28;20516;-51
2022/01/18 00:26:30;;;;;;;17.23;5.90;;;-0.30;99.90;;;;;;5027925;28;20455;-51
2022/01/18 00:29:02;;;;;;;22.53;5.80;;;-0.20;97.70;;;;;;5030829;28;20465;-51
2022/01/18 00:31:44;;;;;;;18.23;4.77;;;-0.20;99.90;;;;;;5037755;28;20508;-52
2022/01/18 00:34:17;;;;;;;31.20;6.60;;;-0.20;96.80;;;;;;5020579;28;20547;-51
2022/01/18 00:36:56;;;;;;;21.07;6.10;;;-0.20;99.20;;;;;;5032635;28;20462;-51
2022/01/18 00:39:23;;;;;;;18.70;5.47;;;-0.20;99.90;;;;;;5038894;28;20960;-51
2022/01/18 00:41:51;;;;;;;12.73;5.10;;;-0.20;99.90;;;;;;5022371;28;20499;-51
2022/01/18 00:44:18;;;;;;;20.40;6.07;;;-0.20;99.90;;;;;;5029830;28;20868;-51
2022/01/18 00:46:45;;;;;;;19.40;5.00;;;-0.20;93.70;;;;;;5029233;28;20494;-51
2022/01/18 00:49:13;;;;;;;21.93;5.60;;;-0.20;99.50;;;;;;5029151;28;20498;-51
2022/01/18 00:51:41;;;;;;;19.03;6.20;;;-0.30;94.60;;;;;;5020451;28;20574;-52
2022/01/18 00:54:13;;;;;;;23.30;6.37;;;-0.30;93.70;;;;;;5029652;28;20467;-52
2022/01/18 00:56:42;;;;;;;17.70;4.87;;;-0.30;92.60;;;;;;5029276;28;20844;-51
2022/01/18 00:59:10;;;;;;;21.67;7.20;;;-0.30;95.40;;;;;;5020640;28;22047;-51
2022/01/18 01:01:38;;;;;;;14.80;5.63;;;-0.30;89.20;;;;;;5026158;28;20517;-51
2022/01/18 01:04:05;;;;;;;13.17;4.30;;;-0.30;84.10;;;;;;5030962;28;20466;-51
2022/01/18 01:06:34;;;;;;;25.07;5.07;;;-0.30;78.80;;;;;;5028919;28;20462;-51
2022/01/18 01:09:01;;;;;;;17.70;5.13;;;-0.30;80.50;;;;;;5022427;28;20468;-52
2022/01/18 01:11:29;;;;;;;14.47;5.03;;;-0.30;72.70;;;;;;5030661;28;20923;-47
2022/01/18 01:13:59;;;;;;;18.57;5.70;;;-0.30;74.50;;;;;;5029556;28;20521;-48
2022/01/18 01:33:42;;;;;;;20.83;5.93;;;-0.30;85.70;;;;;;5023149;28;20485;-49
2022/01/18 01:41:50;;;;;;;15.17;4.37;;;-0.40;84.80;;;;;;5025592;28;20548;-49
2022/01/18 01:44:25;;;;;;;21.43;6.73;;;-0.40;83.60;;;;;;5030837;28;20554;-48
2022/01/18 01:46:52;;;;;;;20.70;5.90;;;-0.50;84.70;;;;;;5027061;28;20921;-48
2022/01/18 01:49:23;;;;;;;11.27;5.27;;;-0.50;84.90;;;;;;5028977;28;20465;-48
2022/01/18 01:51:49;;;;;;;20.67;6.00;;;-0.50;83.70;;;;;;5030060;28;20891;-48
2022/01/18 01:54:17;;;;;;;21.00;6.43;;;-0.50;84.50;;;;;;5023530;28;20881;-47
2022/01/18 01:56:43;;;;;;;22.83;5.17;;;-0.60;86.60;;;;;;5022737;28;20995;-47
2022/01/18 01:59:11;;;;;;;25.40;6.67;;;-0.70;82.40;;;;;;5024829;28;20467;-49
2022/01/18 02:01:43;;;;;;;19.17;5.57;;;-0.70;82.00;;;;;;5027885;28;20467;-47
2022/01/18 02:04:10;;;;;;;23.77;7.13;;;-0.70;77.30;;;;;;5024942;28;21143;-49
2022/01/18 02:06:38;;;;;;;21.33;6.40;;;-0.70;81.50;;;;;;5028102;28;20550;-48
2022/01/18 02:09:05;;;;;;;19.53;6.30;;;-0.70;80.90;;;;;;5028450;28;20491;-48
2022/01/18 02:11:31;;;;;;;20.00;5.13;;;-0.70;77.90;;;;;;5027204;28;20553;-48
2022/01/18 02:13:59;;;;;;;26.73;5.87;;;-0.70;71.70;;;;;;5027497;28;20521;-48
2022/01/18 02:21:52;;;;;;;21.53;6.10;;;-0.70;71.40;;;;;;5025118;28;20438;-48
2022/01/18 02:24:22;;;;;;;22.93;5.70;;;-0.80;74.10;;;;;;5028879;28;20498;-47
2022/01/18 02:26:49;;;;;;;18.97;5.50;;;-0.80;70.00;;;;;;5022236;28;20518;-48
2022/01/18 02:29:16;;;;;;;15.90;5.47;;;-0.80;68.40;;;;;;5026693;28;20482;-47
2022/01/18 02:31:44;;;;;;;18.23;5.70;;;-0.80;64.50;;;;;;5021373;28;20498;-48
2022/01/18 02:34:12;;;;;;;14.33;4.93;;;-0.80;59.20;;;;;;5022735;28;20545;-46
2022/01/18 02:36:39;;;;;;;20.07;5.80;;;-0.80;60.90;;;;;;5028795;28;20569;-49
2022/01/18 02:39:08;;;;;;;23.77;5.83;;;-0.70;55.80;;;;;;5028011;28;20532;-47
2022/01/18 02:41:35;;;;;;;24.33;7.33;;;-0.70;52.90;;;;;;5030302;28;20458;-48
2022/01/18 02:44:05;;;;;;;19.60;5.57;;;-0.70;50.20;;;;;;5031791;28;20456;-49
2022/01/18 02:46:32;;;;;;;15.37;5.10;;;-0.70;49.90;;;;;;5022711;28;20479;-49
2022/01/18 02:49:00;;;;;;;16.10;4.63;;;-0.70;51.90;;;;;;5026471;28;20483;-48
2022/01/18 02:51:27;;;;;;;16.23;5.60;;;-0.70;56.90;;;;;;5022013;28;20531;-48
2022/01/18 02:53:57;;;;;;;24.67;5.33;;;-0.70;50.80;;;;;;5024494;28;20967;-47
2022/01/18 02:56:26;;;;;;;22.87;7.30;;;-0.80;59.80;;;;;;5027070;28;20482;-48
2022/01/18 02:58:59;;;;;;;28.93;6.47;;;-0.70;51.80;;;;;;5026204;28;20549;-48
2022/01/18 03:04:10;;;;;;;21.80;7.10;;;-0.70;41.80;;;;;;5034524;28;20422;-47
2022/01/18 03:06:36;;;;;;;14.33;5.23;;;-0.60;48.80;;;;;;5029671;28;20491;-47
2022/01/18 03:09:04;;;;;;;19.60;5.47;;;-0.60;51.90;;;;;;5028994;28;20455;-48
2022/01/18 03:11:32;;;;;;;15.03;4.93;;;-0.50;60.10;;;;;;5033090;28;20491;-47
2022/01/18 03:13:59;;;;;;;19.77;6.17;;;-0.50;70.60;;;;;;5031852;28;20466;-48
2022/01/18 03:16:25;;;;;;;19.30;5.67;;;-0.50;84.50;;;;;;5037878;28;20516;-48
2022/01/18 03:18:52;;;;;;;26.97;6.07;;;-0.40;81.50;;;;;;5029760;28;20510;-51
2022/01/18 03:21:19;;;;;;;19.00;6.00;;;-0.40;77.80;;;;;;5036277;28;20495;-51
2022/01/18 03:23:50;;;;;;;18.60;6.13;;;-0.40;87.40;;;;;;5032722;28;20546;-51
2022/01/18 03:26:18;;;;;;;21.93;6.13;;;-0.40;95.40;;;;;;5040294;28;20544;-51
2022/01/18 03:28:45;;;;;;;12.03;4.83;;;-0.40;99.90;;;;;;5032153;28;20499;-51
2022/01/18 03:31:12;;;;;;;20.00;5.47;;;-0.40;94.20;;;;;;5030462;28;20458;-52
2022/01/18 03:33:39;;;;;;;17.30;5.37;;;-0.50;99.90;;;;;;5029499;28;20499;-51
2022/01/18 03:36:06;;;;;;;20.00;6.03;;;-0.50;99.90;;;;;;5032741;28;20520;-52
2022/01/18 03:38:32;;;;;;;17.83;5.70;;;-0.50;99.90;;;;;;5033084;28;20568;-52
2022/01/18 03:41:01;;;;;;;19.70;6.27;;;-0.50;99.90;;;;;;5035474;28;20509;-52
2022/01/18 03:43:27;;;;;;;21.13;6.97;;;-0.40;99.90;;;;;;5018415;28;20463;-52
2022/01/18 03:46:00;;;;;;;18.83;5.40;;;-0.50;99.90;;;;;;5021059;28;20463;-52
2022/01/18 03:48:30;;;;;;;25.73;6.10;;;-0.50;98.30;;;;;;5033551;28;21090;-52
2022/01/18 03:50:57;;;;;;;12.33;5.23;;;-0.40;88.50;;;;;;5029880;28;20541;-52
2022/01/18 03:53:24;;;;;;;15.93;5.80;;;-0.30;82.10;;;;;;5032904;28;20494;-51
2022/01/18 03:55:53;;;;;;;16.27;6.03;;;-0.20;82.00;;;;;;5030402;28;20475;-52
2022/01/18 03:58:20;;;;;;;17.60;5.57;;;-0.30;95.80;;;;;;5025802;28;20573;-52
2022/01/18 04:00:47;;;;;;;17.50;5.50;;;-0.20;99.90;;;;;;5031913;28;20474;-52
2022/01/18 04:03:15;;;;;;;26.90;6.53;;;-0.20;95.30;;;;;;5028102;28;20463;-51
2022/01/18 04:05:42;;;;;;;19.43;6.90;;;-0.20;95.10;;;;;;5032642;28;20501;-51
2022/01/18 04:08:08;;;;;;;18.83;5.67;;;-0.10;88.60;;;;;;5030135;28;20675;-51
2022/01/18 04:10:35;;;;;;;16.70;4.90;;;0.00;92.20;;;;;;5032789;28;20494;-51
2022/01/18 04:13:02;;;;;;;19.40;5.30;;;0.00;96.60;;;;;;5032175;28;20509;-51
2022/01/18 04:15:30;;;;;;;22.37;5.97;;;0.00;99.90;;;;;;5024711;28;20521;-51
2022/01/18 04:28:48;;;;;;;28.47;6.77;;;0.10;99.90;;;;;;5029589;28;20467;-51
2022/01/18 04:31:14;;;;;;;17.27;5.23;;;0.10;99.90;;;;;;5032033;28;20467;-51
2022/01/18 04:33:41;;;;;;;21.50;5.80;;;0.10;99.90;;;;;;5029784;28;20497;-51
2022/01/18 04:36:10;;;;;;;24.33;6.57;;;0.20;99.90;;;;;;5028570;28;20573;-52
2022/01/18 04:38:37;;;;;;;18.57;6.30;;;0.30;98.80;;;;;;5030052;28;20506;-52
2022/01/18 04:41:07;;;;;;;23.60;6.30;;;0.30;99.90;;;;;;5031543;28;20471;-51
2022/01/18 04:43:52;;;;;;;25.93;6.20;;;0.40;99.90;;;;;;5025922;28;20502;-51
2022/01/18 04:49:04;;;;;;;22.47;5.70;;;0.50;99.90;;;;;;5021201;28;20453;-50
2022/01/18 04:51:33;;;;;;;16.00;5.47;;;0.50;99.90;;;;;;5023768;28;20491;-51
2022/01/18 04:54:01;;;;;;;14.33;5.00;;;0.50;99.90;;;;;;5028105;28;20486;-51
2022/01/18 04:57:51;;;;;;;20.13;5.90;;;0.40;99.90;;;;;;5024217;28;20522;-51
2022/01/18 04:59:20;;;;;;;20.20;7.10;;;0.40;99.90;;;;;;5042508;28;20474;-50
2022/01/18 05:01:50;;;;;;;19.43;6.50;;;0.40;99.90;;;;;;5048804;28;20459;-50
2022/01/18 05:04:16;;;;;;;22.27;6.30;;;0.50;99.90;;;;;;5045051;28;20464;-49
2022/01/18 05:06:44;;;;;;;21.63;5.57;;;0.50;99.90;;;;;;5049731;28;20489;-49
2022/01/18 05:09:11;;;;;;;20.03;6.07;;;0.50;99.90;;;;;;5046323;28;20489;-51
2022/01/18 05:11:47;;;;;;;22.87;6.40;;;0.50;99.90;;;;;;5050409;28;20553;-51
2022/01/18 05:14:23;;;;;;;18.00;6.20;;;0.50;99.90;;;;;;5047366;28;20465;-49
2022/01/18 05:16:57;;;;;;;20.40;5.50;;;0.60;99.90;;;;;;5045440;28;21033;-51
2022/01/18 05:19:29;;;;;;;23.03;7.20;;;0.60;99.90;;;;;;5048588;28;20446;-49
2022/01/18 05:24:40;;;;;;;17.97;4.70;;;0.70;99.90;;;;;;5050050;28;20456;-49
2022/01/18 05:27:07;;;;;;;19.67;5.50;;;0.70;99.90;;;;;;5052991;28;20653;-50
2022/01/18 05:29:34;;;;;;;19.07;5.97;;;0.70;99.90;;;;;;5048086;28;20535;-50
2022/01/18 05:32:00;;;;;;;17.27;5.10;;;0.70;99.90;;;;;;5050543;28;20485;-49
2022/01/18 05:34:27;;;;;;;24.33;6.63;;;0.70;99.90;;;;;;5047646;28;20479;-50
2022/01/18 05:36:53;;;;;;;16.60;6.17;;;0.70;99.90;;;;;;5052402;28;20481;-49
2022/01/18 05:39:21;;;;;;;21.93;6.63;;;0.80;99.90;;;;;;5055253;28;20489;-49
2022/01/18 05:41:48;;;;;;;17.93;5.87;;;0.80;99.90;;;;;;5051619;28;20488;-50
2022/01/18 05:44:14;;;;;;;21.97;5.80;;;0.70;99.90;;;;;;5051270;28;20518;-51
2022/01/18 05:46:41;;;;;;;22.30;6.87;;;0.70;99.90;;;;;;5046368;28;21294;-49
2022/01/18 05:49:08;;;;;;;13.97;4.30;;;0.60;99.90;;;;;;5049965;28;20509;-50
2022/01/18 05:51:36;;;;;;;17.20;5.57;;;0.60;99.90;;;;;;5047272;28;20494;-51
2022/01/18 05:54:04;;;;;;;21.83;6.47;;;0.60;99.90;;;;;;5046892;28;20469;-49
2022/01/18 05:56:32;;;;;;;27.23;6.70;;;0.60;99.90;;;;;;5052673;28;20930;-50
2022/01/18 05:59:02;;;;;;;17.30;5.50;;;0.60;99.90;;;;;;5043349;28;20544;-50
2022/01/18 06:01:33;;;;;;;20.83;5.50;;;0.60;99.90;;;;;;5045457;28;20500;-50
2022/01/18 06:04:17;;;;;;;16.50;5.33;;;0.60;99.90;;;;;;5050808;28;20496;-49
2022/01/18 06:06:53;;;;;;;20.10;5.60;;;0.60;99.90;;;;;;5049651;28;20516;-50
2022/01/18 06:09:21;;;;;;;17.67;5.93;;;0.40;99.90;;;;;;5046217;28;20828;-50
2022/01/18 06:11:49;;;;;;;19.00;6.10;;;0.40;99.90;;;;;;5049802;28;20461;-51
2022/01/18 06:14:16;;;;;;;19.13;5.30;;;0.40;99.90;;;;;;5045422;28;20501;-51
2022/01/18 06:16:43;;;;;;;17.33;4.83;;;0.40;99.90;;;;;;5044460;28;20504;-49
2022/01/18 06:19:10;;;;;;;17.70;5.77;;;0.40;99.90;;;;;;5048368;28;21010;-49
2022/01/18 06:21:37;;;;;;;21.43;5.77;;;0.60;99.90;;;;;;5041464;28;20539;-50
2022/01/18 06:24:04;;;;;;;20.20;6.40;;;0.60;99.90;;;;;;5048761;28;20878;-50
2022/01/18 06:26:30;;;;;;;17.97;6.60;;;0.60;99.90;;;;;;5044531;28;20482;-50
2022/01/18 06:29:00;;;;;;;22.10;6.17;;;0.50;99.90;;;;;;5044319;28;20509;-50
2022/01/18 06:31:26;;;;;;;22.13;6.60;;;0.60;99.90;;;;;;5047072;28;20497;-50
2022/01/18 06:33:53;;;;;;;19.50;6.13;;;0.60;99.90;;;;;;5044163;28;20464;-51
2022/01/18 06:36:20;;;;;;;22.83;5.80;;;0.50;99.90;;;;;;5044457;28;20486;-49
2022/01/18 06:38:46;;;;;;;20.60;5.90;;;0.50;99.90;;;;;;5049450;28;20493;-49
2022/01/18 06:41:13;;;;;;;24.67;7.47;;;0.50;99.90;;;;;;5047268;28;20496;-49
2022/01/18 06:43:39;;;;;;;14.73;4.83;;;0.40;99.90;;;;;;5043303;28;20463;-50
2022/01/18 06:46:07;;;;;;;19.90;5.87;;;0.40;99.90;;;;;;5048239;28;20493;-50
2022/01/18 06:48:34;;;;;;;19.37;6.10;;;0.40;99.90;;;;;;5045395;28;20938;-50
2022/01/18 06:51:00;;;;;;;18.63;5.20;;;0.40;97.40;;;;;;5048205;28;20493;-49
2022/01/18 06:53:31;;;;;;;19.70;5.23;;;0.40;97.60;;;;;;5048589;28;20485;-51
2022/01/18 06:55:58;;;;;;;13.70;5.10;;;0.40;99.90;;;;;;5048685;28;20512;-51
2022/01/18 06:58:24;;;;;;;20.10;4.90;;;0.40;99.90;;;;;;5047414;28;20520;-51
2022/01/18 07:00:51;;;;;;;19.20;6.37;;;0.40;99.90;;;;;;5046826;28;21004;-50
2022/01/18 07:03:20;;;;;;;12.50;5.60;;;0.40;99.90;;;;;;5046937;28;20998;-51
2022/01/18 07:05:46;;;;;;;15.53;5.60;;;0.50;99.90;;;;;;5046802;28;20993;-49
2022/01/18 07:08:13;;;;;;;19.60;6.20;;;0.60;96.30;;;;;;5047785;28;20513;-50
2022/01/18 07:10:40;;;;;;;20.80;5.57;;;0.60;98.20;;;;;;5047196;28;20547;-50
2022/01/18 07:13:08;;;;;;;26.40;8.63;;;0.60;99.90;;;;;;5039630;28;20458;-50
2022/01/18 07:15:35;;;;;;;16.87;6.53;;;0.70;99.90;;;;;;5047715;28;20465;-50
2022/01/18 07:18:01;;;;;;;14.93;5.33;;;0.60;99.90;;;;;;5047634;28;21164;-51
2022/01/18 07:20:29;;;;;;;16.37;5.67;;;0.70;99.90;;;;;;5044074;28;20520;-50
2022/01/18 07:22:56;;;;;;;14.30;5.13;;;0.90;99.90;;;;;;5049070;28;20497;-50
2022/01/18 07:25:25;;;;;;;19.83;6.30;;;0.90;99.90;;;;;;5047059;28;20970;-50
2022/01/18 07:27:51;;;;;;;13.53;4.97;;;0.90;99.90;;;;;;5043928;28;20528;-50
2022/01/18 07:30:18;;;;;;;22.20;6.47;;;1.00;99.90;;;;;;5042947;28;20493;-50
2022/01/18 07:32:45;;;;;;;10.83;5.83;;;1.00;99.90;;;;;;5048226;28;20489;-50
2022/01/18 07:35:12;;;;;;;24.87;6.03;;;1.10;99.90;;;;;;5041562;28;20462;-54
2022/01/18 07:37:39;;;;;;;22.97;6.07;;;1.10;99.90;;;;;;5036857;28;20489;-51
2022/01/18 07:40:08;;;;;;;14.60;5.27;;;1.10;99.90;;;;;;5043926;28;20959;-51
2022/01/18 07:42:34;;;;;;;16.30;6.33;;;1.00;99.90;;;;;;5044882;28;20595;-51
2022/01/18 07:45:01;;;;;;;19.73;5.37;;;1.00;99.90;;;;;;5046224;28;20481;-50
2022/01/18 07:47:27;;;;;;;20.73;6.20;;;1.10;99.90;;;;;;5043725;28;20516;-50
2022/01/18 07:49:54;;;;;;;17.87;5.47;;;1.20;99.90;;;;;;5049208;28;20493;-50
2022/01/18 07:52:20;;;;;;;25.17;6.80;;;1.30;99.90;;;;;;5045903;28;21059;-50
2022/01/18 07:54:48;;;;;;;15.70;5.20;;;1.40;99.90;;;;;;5047859;28;20497;-51
2022/01/18 07:57:15;;;;;;;19.40;6.00;;;1.30;99.90;;;;;;5045093;28;20512;-52
2022/01/18 07:59:42;;;;;;;16.70;5.93;;;1.20;99.90;;;;;;5050671;28;20469;-49
2022/01/18 08:02:09;;;;;;;22.53;6.37;;;1.20;99.90;;;;;;5049737;28;20529;-50
2022/01/18 08:04:35;;;;;;;21.37;6.77;;;1.30;99.90;;;;;;5040685;28;20466;-49
2022/01/18 08:07:02;;;;;;;10.63;4.97;;;1.40;99.90;;;;;;5047620;28;20490;-49
2022/01/18 08:09:28;;;;;;;21.03;7.20;;;1.40;99.90;;;;;;5047011;28;20496;-51
2022/01/18 08:11:57;;;;;;;18.70;6.80;;;1.40;99.90;;;;;;5050868;28;20490;-49
2022/01/18 08:14:26;;;;;;;18.53;6.30;;;1.40;99.90;;;;;;5042061;28;20554;-49
2022/01/18 08:17:00;;;;;;;19.83;7.80;;;1.40;99.90;;;;;;5044989;28;20481;-49
2022/01/18 08:19:28;;;;;;;18.97;6.30;;;1.50;99.90;;;;;;5041598;28;20458;-51
2022/01/18 08:21:55;;;;;;;13.73;5.43;;;1.50;99.90;;;;;;5045539;28;20454;-51
2022/01/18 08:24:22;;;;;;;17.83;5.67;;;1.50;99.90;;;;;;5041214;28;20479;-49
2022/01/18 08:26:49;;;;;;;15.50;6.53;;;1.60;99.90;;;;;;5039214;28;20943;-50
2022/01/18 08:29:17;;;;;;;28.93;7.10;;;1.60;99.90;;;;;;5050389;28;20485;-50
2022/01/18 08:31:43;;;;;;;17.90;6.90;;;1.70;99.90;;;;;;5051512;28;20473;-50
2022/01/18 08:34:10;;;;;;;20.50;6.57;;;1.70;99.90;;;;;;5045160;28;20493;-50
2022/01/18 08:36:37;;;;;;;18.70;5.80;;;1.80;99.90;;;;;;5045296;28;20573;-51
2022/01/18 08:39:04;;;;;;;16.70;5.40;;;1.80;99.90;;;;;;5045088;28;20572;-50
2022/01/18 08:41:30;;;;;;;16.10;5.40;;;1.90;99.90;;;;;;5048276;28;20489;-50
2022/01/18 08:43:57;;;;;;;23.27;5.67;;;1.90;99.90;;;;;;5047228;28;20914;-50
2022/01/18 08:46:25;;;;;;;22.77;6.93;;;1.90;99.90;;;;;;5045934;28;20457;-49
2022/01/18 08:48:53;;;;;;;23.57;6.53;;;2.00;99.90;;;;;;5049828;28;20571;-51
2022/01/18 08:51:20;;;;;;;14.23;5.40;;;2.10;99.90;;;;;;5043718;28;20947;-49
2022/01/18 08:53:50;;;;;;;14.27;5.33;;;2.10;99.90;;;;;;5049046;28;20513;-50
2022/01/18 08:56:16;;;;;;;17.73;5.67;;;2.20;99.90;;;;;;5049411;28;21306;-49
2022/01/18 08:58:43;;;;;;;18.30;6.73;;;2.20;99.90;;;;;;5046023;28;21204;-50
2022/01/18 09:01:10;;;;;;;21.97;6.50;;;2.20;99.90;;;;;;5046054;28;20873;-50
2022/01/18 09:03:37;;;;;;;12.17;5.47;;;2.20;99.90;;;;;;5044857;28;20619;-50
2022/01/18 09:06:06;;;;;;;14.63;6.63;;;2.30;99.90;;;;;;5048806;28;21022;-51
2022/01/18 09:08:34;;;;;;;10.93;5.40;;;2.30;99.90;;;;;;5042177;28;20481;-50
2022/01/18 09:11:00;;;;;;;14.57;5.23;;;2.30;99.90;;;;;;5037932;28;20458;-49
2022/01/18 09:13:28;;;;;;;13.47;5.77;;;2.50;99.90;;;;;;5048159;28;20458;-50
2022/01/18 09:15:55;;;;;;;15.17;5.80;;;2.50;99.90;;;;;;5046842;28;20512;-49
2022/01/18 09:18:22;;;;;;;14.63;5.70;;;2.60;99.90;;;;;;5048557;28;20510;-51
2022/01/18 09:20:50;;;;;;;19.30;6.20;;;2.70;99.90;;;;;;5048357;28;20545;-49
2022/01/18 09:23:17;;;;;;;22.30;5.70;;;2.70;1.40;;;;;;5042771;28;20505;-51
2022/01/18 09:25:44;;;;;;;12.63;4.60;;;2.70;99.90;;;;;;5046155;28;20468;-50
2022/01/18 09:28:10;;;;;;;14.83;5.20;;;2.80;99.90;;;;;;5041805;28;20510;-50
2022/01/18 09:30:38;;;;;;;12.97;4.97;;;2.90;99.90;;;;;;5047485;28;20540;-51
2022/01/18 09:33:06;;;;;;;20.83;6.30;;;3.00;99.90;;;;;;5048251;28;20567;-51
2022/01/18 09:35:33;;;;;;;12.10;4.27;;;3.10;99.90;;;;;;5046701;28;20454;-51
2022/01/18 09:38:02;;;;;;;13.70;4.90;;;3.20;99.90;;;;;;5046782;28;20519;-51
2022/01/18 09:40:28;;;;;;;26.40;6.10;;;3.20;99.90;;;;;;5041986;28;20948;-51
2022/01/18 09:42:59;;;;;;;16.07;5.37;;;3.20;99.90;;;;;;5050372;28;20465;-50
2022/01/18 09:45:27;;;;;;;18.27;5.60;;;3.30;22.50;;;;;;5042398;28;20461;-50
2022/01/18 09:47:55;;;;;;;13.27;5.10;;;3.50;94.60;;;;;;5047911;28;20532;-51
2022/01/18 09:50:23;;;;;;;14.13;4.90;;;3.60;24.30;;;;;;5044979;28;20498;-51
2022/01/18 09:52:53;;;;;;;13.47;4.47;;;3.90;50.40;;;;;;5043796;28;20505;-51
2022/01/18 09:55:24;;;;;;;15.87;5.03;;;4.00;54.20;;;;;;5038872;28;20462;-50
2022/01/18 09:57:51;;;;;;;18.70;5.87;;;4.60;93.50;;;;;;5037995;28;20488;-50
2022/01/18 10:00:18;;;;;;;11.53;4.80;;;4.70;96.60;;;;;;5041992;28;20523;-50
2022/01/18 10:02:46;;;;;;;17.57;4.93;;;4.60;99.90;;;;;;5044652;28;20498;-50
2022/01/18 10:05:21;;;;;;;16.87;4.57;;;4.50;99.90;;;;;;5048055;28;20486;-50
2022/01/18 10:07:59;;;;;;;21.47;4.30;;;4.60;99.40;;;;;;5043870;28;20572;-52
2022/01/18 10:10:39;;;;;;;16.80;4.73;;;4.60;94.20;;;;;;5037461;28;20535;-51
2022/01/18 10:13:07;;;;;;;19.27;4.43;;;4.50;88.70;;;;;;5045999;28;20469;-50
2022/01/18 10:15:34;;;;;;;16.80;4.27;;;4.70;86.40;;;;;;5047405;28;20497;-49
2022/01/18 10:18:05;;;;;;;13.70;3.50;;;5.20;99.90;;;;;;5036323;28;20493;-49
2022/01/18 10:20:33;;;;;;;12.40;4.17;;;5.10;99.90;;;;;;5042970;28;20470;-50
2022/01/18 10:23:00;;;;;;;12.33;3.73;;;5.30;99.90;;;;;;5047146;28;21002;-51
2022/01/18 10:25:28;;;;;;;12.40;3.40;;;5.00;99.90;;;;;;5046607;28;20509;-50
2022/01/18 10:27:56;;;;;;;8.10;3.40;;;5.00;99.90;;;;;;5044509;28;20987;-51
2022/01/18 10:30:35;;;;;;;13.07;3.60;;;5.00;99.90;;;;;;5042024;28;20505;-51
2022/01/18 10:33:09;;;;;;;9.93;4.20;;;5.00;99.90;;;;;;5041997;28;20842;-51
2022/01/18 10:35:35;;;;;;;17.10;4.07;;;5.10;99.90;;;;;;5043834;28;20558;-50
2022/01/18 10:38:16;;;;;;;14.80;4.50;;;5.10;99.90;;;;;;5043417;28;20528;-50
2022/01/18 10:40:42;;;;;;;14.80;4.20;;;5.10;99.90;;;;;;5049871;28;20519;-51
2022/01/18 10:43:23;;;;;;;11.67;4.33;;;5.40;99.90;;;;;;5045917;28;20497;-50
2022/01/18 10:45:50;;;;;;;12.27;3.63;;;5.60;99.90;;;;;;5041904;28;20490;-49
2022/01/18 10:48:16;;;;;;;17.27;4.00;;;5.70;99.90;;;;;;5042713;28;21035;-50
2022/01/18 10:50:45;;;;;;;22.30;4.17;;;5.80;99.90;;;;;;5043734;28;20494;-50
2022/01/18 10:53:13;;;;;;;13.43;4.90;;;5.60;99.90;;;;;;5043629;28;20967;-51
2022/01/18 10:55:41;;;;;;;8.80;3.43;;;5.60;99.90;;;;;;5044613;28;20551;-51
2022/01/18 10:58:12;;;;;;;10.53;3.27;;;5.50;99.90;;;;;;5054417;23;20520;-56
2022/01/18 11:00:39;;;;;;;6.97;2.77;;;5.30;99.90;;;;;;5040958;28;20592;-55
2022/01/18 11:03:06;;;;;;;14.10;4.10;;;5.30;99.90;;;;;;5039475;28;20484;-55
2022/01/18 11:05:35;;;;;;;15.93;4.17;;;5.30;99.90;;;;;;5047702;28;20953;-55
2022/01/18 11:08:04;;;;;;;10.57;3.40;;;5.30;99.90;;;;;;5042717;28;20587;-56
2022/01/18 11:10:34;;;;;;;14.00;3.60;;;5.30;99.90;;;;;;5042909;28;20514;-55
2022/01/18 11:13:04;;;;;;;7.17;2.80;;;5.30;99.90;;;;;;5044692;28;20889;-54
2022/01/18 11:15:35;;;;;;;11.13;3.53;;;5.30;99.90;;;;;;5041227;28;20457;-56
2022/01/18 11:18:04;;;;;;;21.00;5.07;;;5.30;99.90;;;;;;5045122;28;20484;-55
2022/01/18 11:20:34;;;;;;;10.80;4.13;;;5.30;99.90;;;;;;5041513;28;20469;-54
2022/01/18 11:23:01;;;;;;;6.30;3.20;;;5.40;99.90;;;;;;5047630;28;20999;-56
2022/01/18 11:25:29;;;;;;;10.87;3.03;;;5.50;99.90;;;;;;5051832;28;20497;-56
2022/01/18 11:27:58;;;;;;;12.70;2.87;;;5.50;99.90;;;;;;5051872;28;20487;-55
2022/01/18 11:30:26;;;;;;;11.53;3.10;;;5.50;99.90;;;;;;5044650;28;20874;-56
2022/01/18 11:32:56;;;;;;;12.83;2.73;;;5.60;99.90;;;;;;5042183;28;20493;-55
2022/01/18 11:35:32;;;;;;;8.00;2.63;;;5.60;99.90;;;;;;5047694;28;20485;-56
2022/01/18 11:38:05;;;;;;;8.90;2.90;;;5.70;99.90;;;;;;5043807;28;20498;-56
2022/01/18 11:40:44;;;;;;;4.37;2.60;;;5.80;99.90;;;;;;5045381;28;20473;-56
2022/01/18 11:43:11;;;;;;;7.40;2.50;;;5.90;99.90;;;;;;5045344;28;20817;-55
2022/01/18 11:45:40;;;;;;;13.10;2.00;;;5.80;99.90;;;;;;5048333;28;20870;-56
2022/01/18 11:48:19;;;;;;;7.90;2.23;;;6.00;99.90;;;;;;5050154;28;20901;-56
2022/01/18 11:50:49;;;;;;;5.80;2.23;;;6.40;99.90;;;;;;5042824;28;20490;-56
2022/01/18 11:53:24;;;;;;;4.33;2.23;;;6.40;99.90;;;;;;5044964;28;20512;-55
2022/01/18 11:55:52;;;;;;;9.57;2.63;;;6.40;99.90;;;;;;5049243;28;20457;-55
2022/01/18 11:58:19;;;;;;;10.77;2.67;;;6.50;99.90;;;;;;5048176;28;20941;-56
2022/01/18 12:00:52;;;;;;;14.07;3.20;;;6.40;99.90;;;;;;5044366;28;20571;-55
2022/01/18 12:03:22;;;;;;;6.83;3.60;;;6.50;99.90;;;;;;5043837;28;20462;-55
2022/01/18 12:05:49;;;;;;;7.50;3.20;;;6.60;99.90;;;;;;5049909;28;20535;-55
2022/01/18 12:08:37;;;;;;;5.73;2.33;;;6.70;99.90;;;;;;5043098;28;20564;-55
2022/01/18 12:11:06;;;;;;;9.97;2.70;;;6.60;99.90;;;;;;5041512;28;20501;-55
2022/01/18 12:13:47;;;;;;;6.33;2.70;;;6.50;99.90;;;;;;5039725;28;20544;-55
2022/01/18 12:16:28;;;;;;;9.73;3.00;;;6.60;99.90;;;;;;5034540;28;20543;-56
2022/01/18 12:19:04;;;;;;;9.80;2.53;;;6.50;99.90;;;;;;5042794;28;20496;-56
2022/01/18 12:21:32;;;;;;;4.60;2.50;;;6.50;99.90;;;;;;5046235;28;20540;-55
2022/01/18 12:24:13;;;;;;;8.70;2.50;;;6.30;99.90;;;;;;5050376;28;20492;-56
2022/01/18 12:26:42;;;;;;;9.20;2.27;;;6.40;99.90;;;;;;5049125;28;20461;-55
2022/01/18 12:29:25;;;;;;;8.97;2.70;;;6.30;99.90;;;;;;5047136;28;20504;-55
2022/01/18 12:35:03;;;;;;;8.30;3.00;;;6.20;99.90;;;;;;5047187;28;20438;-55
2022/01/18 12:37:39;;;;;;;6.40;2.60;;;6.60;99.90;;;;;;5043629;28;20493;-55
2022/01/18 12:40:22;;;;;;;17.37;3.00;;;6.70;99.90;;;;;;5046646;28;20573;-55
2022/01/18 12:45:45;;;;;;;6.80;2.33;;;6.50;99.90;;;;;;5045302;28;21075;-56
2022/01/18 12:48:14;;;;;;;7.10;2.30;;;6.40;99.90;;;;;;5047189;28;20567;-56
2022/01/18 12:50:44;;;;;;;5.73;2.33;;;6.50;99.90;;;;;;5044267;28;20485;-56
2022/01/18 12:53:12;;;;;;;6.97;2.10;;;6.50;99.90;;;;;;5051378;28;20458;-55
2022/01/18 12:55:44;;;;;;;14.20;3.67;;;6.30;99.90;;;;;;5053134;28;20820;-54
2022/01/18 12:58:12;;;;;;;8.83;2.70;;;6.20;99.90;;;;;;5050157;28;20489;-54
2022/01/18 13:00:41;;;;;;;6.93;2.10;;;6.20;99.90;;;;;;5051439;28;20485;-55
2022/01/18 13:03:08;;;;;;;10.03;2.87;;;6.10;99.90;;;;;;5050629;28;20497;-56
2022/01/18 13:05:40;;;;;;;7.50;2.60;;;6.00;99.90;;;;;;5046063;28;20446;-56
2022/01/18 13:08:10;;;;;;;21.33;3.30;;;6.20;99.90;;;;;;5048806;28;20486;-55
2022/01/18 13:10:40;;;;;;;11.47;3.83;;;6.10;99.90;;;;;;5045978;28;20549;-56
2022/01/18 13:13:08;;;;;;;7.33;3.10;;;6.10;99.90;;;;;;5045915;28;20548;-55
2022/01/18 13:15:48;;;;;;;5.93;2.50;;;6.10;99.90;;;;;;5042374;28;20512;-56
2022/01/18 13:23:58;;;;;;;8.40;2.63;;;5.90;99.90;;;;;;5039627;28;20449;-55
2022/01/18 13:26:29;;;;;;;7.83;3.23;;;5.90;99.90;;;;;;5044021;28;20592;-56
2022/01/18 13:28:56;;;;;;;11.53;3.03;;;5.90;99.90;;;;;;5043521;28;20486;-56
2022/01/18 13:31:24;;;;;;;8.73;2.33;;;5.80;99.90;;;;;;5045234;28;20501;-57
2022/01/18 13:33:52;;;;;;;7.63;2.50;;;5.80;99.90;;;;;;5041132;28;20505;-56
2022/01/18 13:36:19;;;;;;;10.03;2.70;;;5.80;99.90;;;;;;5045565;28;20552;-56
2022/01/18 13:38:46;;;;;;;10.03;2.80;;;5.80;99.90;;;;;;5044864;28;20535;-55
2022/01/18 13:41:14;;;;;;;2.80;1.97;;;5.80;99.90;;;;;;5044451;28;20466;-56
2022/01/18 13:43:42;;;;;;;13.03;2.60;;;5.80;99.90;;;;;;5043668;28;20552;-56
2022/01/18 13:46:09;;;;;;;8.77;2.40;;;5.80;99.90;;;;;;5050720;28;20823;-56
2022/01/18 13:48:37;;;;;;;8.23;2.50;;;5.70;99.90;;;;;;5047927;28;20501;-55
2022/01/18 13:51:14;;;;;;;12.40;2.80;;;5.80;99.90;;;;;;5045970;28;20558;-57
2022/01/18 13:53:40;;;;;;;9.23;2.83;;;5.70;99.90;;;;;;5044575;28;20458;-56